x

West Oregon - 275nm West Of Coos Bay, Or (46002) Wave Buoy

7:50am - Tue 21st Oct 2014 All times are UTC.

  • Sig Wave height 12.1ft
  • Peak Period 13s
  • Average Period 8s
  • Wind
    25mph, 29mph gusts
  • Sea Temp 64°f
  • Air Temp 62°f
  • Sea Pressure 1010.6mb

More Historic Weather Station data

Upgrade to MSW Pro to gain access to the past 30 days of data for over 8000 Wavebouys and Weather Stations around the globe.

Join Pro

Comparision Forecast

View Surf forecast
   
Tue 10/21 7:50am 12ft 13s 8s 25 29 mph 1010.6mb 64f 62f
6:50am 12.5ft 11s 8s 22 27 mph 1011.1mb 64f 62f
5:50am 14ft 13s 9s 18 25 mph 1011.1mb 64f 60f
4:50am 15.5ft 12s 9s 18 25 mph 1010.8mb 64f 62f
3:50am 15.5ft 12s 9s 20 25 mph 1010.8mb 64f 62f
2:50am 16ft 14s 9s 22 29 mph 1010.6mb 64f 62f
1:50am 15.5ft 15s 10s 20 25 mph 1010.5mb 64f 62f
12:50am 16.5ft 14s 10s 20 25 mph 1010.6mb 64f 61f
Mon 10/20 11:50pm 14ft 15s 9s 25 29 mph 1010.2mb 64f 61f
10:50pm 17.5ft 15s 10s 20 27 mph 1009.9mb 64f 62f
9:50pm 16.5ft 15s 10s 20 25 mph 1009.3mb 64f 61f
8:50pm 15ft 15s 9s 20 25 mph 1008.7mb 64f 61f
7:50pm 18ft 16s 10s 20 25 mph 1008.6mb 64f 60f
6:50pm  -   -   -  20 27 mph 1007.9mb 64f 60f
5:50pm 15.5ft 16s 10s 22 31 mph 1007.2mb 64f 60f
4:50pm 15ft 16s 9s 20 25 mph 1006.6mb 64f 59f
3:50pm 14.5ft 16s 9s 20 25 mph 1005.4mb 64f 58f
2:50pm 14.5ft 16s 10s 20 27 mph 1004.6mb 64f 59f
1:50pm 15ft 14s 10s 16 22 mph 1004mb 64f 58f
12:50pm 13.5ft 16s 9s 20 25 mph 1003.6mb 64f 60f
11:50am 14ft 12s 10s 18 25 mph 1003.1mb 64f 60f
10:50am 15ft 16s 10s 13 20 mph 1003.2mb 64f 60f
9:50am 15ft 11s 10s 16 20 mph 1003.2mb 64f 60f
8:50am 14ft 14s 9s 18 22 mph 1002.8mb 64f 61f
7:50am 15ft 16s 10s 16 22 mph 1002.7mb 64f 61f
6:50am 14ft 15s 9s 18 22 mph 1002.3mb 64f 61f
5:50am 15ft 15s 9s 16 20 mph 1002.2mb 64f 61f
4:50am 12.5ft 15s  -  18 25 mph 1002mb 64f 62f
3:50am 14ft 15s 9s 16 20 mph 1002mb 64f 62f
2:50am 12.5ft 16s 8s 16 20 mph 1001.7mb 64f 62f
1:50am 13.5ft 14s 8s 18 22 mph 1001.3mb 64f 61f
12:50am 13.5ft 15s 8s 22 27 mph 1001.3mb 64f 62f
Sun 10/19 11:50pm 15ft 16s 9s 18 25 mph 1001.2mb 64f 63f
10:50pm 14ft 13s 8s 22 27 mph 1000.9mb 64f 63f
9:50pm 14ft 13s 8s 25 29 mph 1000.7mb 64f 63f
8:50pm 14ft 13s 8s 20 27 mph 1001mb 64f 62f
7:50pm 13.5ft 13s 8s 22 29 mph 1001mb 64f 64f
6:50pm 13ft 11s 8s 22 29 mph 1000.8mb 64f 63f
5:50pm 12.5ft 10s 8s 20 25 mph 1000.5mb 64f 64f
4:50pm 12.5ft 11s 8s 20 25 mph 1000.2mb 64f 64f
3:50pm 12ft 10s 7s 22 27 mph 999.7mb 64f 64f
2:50pm 13ft 10s 8s 22 27 mph 999.1mb 64f 64f
1:50pm 12ft 10s 7s 22 29 mph 998.6mb 64f 64f
12:50pm 12ft 11s 7s 22 29 mph 998.5mb 64f 63f
11:50am 12ft 10s 7s 25 29 mph 998.1mb 64f 64f
10:50am 13ft 9s 7s 25 31 mph 998.3mb 64f 63f
9:50am 14ft 8s 7s 25 31 mph 998.1mb 64f 63f
8:50am 13.5ft 9s 7s 27 31 mph 998.2mb 65f 64f
7:50am 13.5ft 8s 7s 31 38 mph 998.1mb 65f 66f
6:50am 12ft 8s 7s 29 36 mph 998.9mb 65f 65f
5:50am 13ft 9s 7s 29 36 mph 999.6mb 65f 65f
4:50am 11.5ft 8s 7s 29 40 mph 1000.3mb 65f 66f
3:50am 12.5ft 8s 7s 31 38 mph 1001.1mb 65f 65f
2:50am 11ft 8s 7s 31 38 mph 1001.5mb 65f 65f
1:50am 12ft 8s 7s 29 38 mph 1001.6mb 65f 65f
12:50am 10ft 10s 7s 29 36 mph 1002.4mb 65f 65f
Sat 10/18 11:50pm 10ft 8s 6s 27 36 mph 1003.8mb 65f 65f
10:50pm 10ft 8s 7s 27 34 mph 1004.8mb 65f 65f
9:50pm 10.5ft 8s 7s 27 31 mph 1005.8mb 65f 65f
8:50pm 9.5ft 7s 7s 27 31 mph 1006.5mb 65f 65f
7:50pm 10ft 9s 6s 27 34 mph 1007.1mb 65f 65f
6:50pm 9.5ft 8s 6s 27 34 mph 1007.6mb 64f 65f
5:50pm 9.5ft 10s 7s 25 31 mph 1008mb 64f 65f
4:50pm 9ft 8s 6s 25 31 mph 1008mb 64f 65f
3:50pm 8.5ft 9s 7s 25 31 mph 1007.8mb 64f 65f
2:50pm 8ft 10s 7s 25 29 mph 1008mb 64f 65f
1:50pm 9.5ft 9s 7s 20 25 mph 1008.5mb 64f 64f
12:50pm 9ft 9s 7s 20 25 mph 1008.6mb 64f 64f
11:50am 10ft 11s 7s 16 20 mph 1008.9mb 64f 62f
10:50am 10ft 9s 7s 20 25 mph 1009.2mb 64f 63f
9:50am 10.5ft 11s 7s 22 27 mph 1009.3mb 64f 64f
8:50am 9.5ft 11s 7s 18 22 mph 1009.5mb 64f 64f
7:50am 10ft 11s 8s 18 20 mph 1009.4mb 64f 64f
6:50am 10ft 10s 8s 11 16 mph 1009.4mb 64f 64f
5:50am 9.5ft 10s 7s 13 18 mph 1009.1mb 64f 64f
4:50am 10ft 10s 7s 13 20 mph 1008.6mb 64f 64f
3:50am 10.5ft 11s 8s 13 18 mph 1007.8mb 65f 64f
2:50am 10.5ft 12s 8s 13 18 mph 1007.2mb 65f 64f
1:50am 11ft 9s 8s 13 16 mph 1006.6mb 65f 64f
12:50am 11ft 11s 8s 16 18 mph 1006mb 65f 64f
Fri 10/17 11:50pm 11ft 10s 8s 16 20 mph 1005.7mb 65f 64f
10:50pm 11ft 10s 7s 18 22 mph 1005mb 65f 64f
9:50pm 11.5ft 11s 8s 18 22 mph 1004.3mb 65f 64f
8:50pm 12ft 10s 7s 20 25 mph 1003.8mb 65f 64f
7:50pm 12ft 11s 8s 18 22 mph 1003.4mb 65f 64f
6:50pm 13ft 10s 8s 16 18 mph 1002.6mb 65f 64f
5:50pm  -   -   -  13 18 mph 1001.9mb 65f 64f
4:50pm 12ft 10s 8s 18 22 mph 1001.1mb 65f 63f
3:50pm 13ft 11s 8s 13 18 mph 999.9mb 65f 63f
2:50pm  -   -   -  18 25 mph 998.8mb 65f 63f
1:50pm 12ft 11s 8s 16 20 mph 997.8mb 65f 65f
12:50pm 12ft 11s 8s 16 20 mph 996.8mb 65f 65f
11:50am 13ft 10s 8s 16 18 mph 996.3mb 65f 65f
10:50am 12ft 11s 8s 16 20 mph 996.1mb 65f 65f
9:50am 14.5ft 11s 8s 11 16 mph 995.8mb 65f 63f